首页
METAR-TAF:

METAR-TAF

机场 :

Suffolk Executive Airport

薩福克, 弗吉尼亚州, 美国

纬度: 36-40-56N, 经度: 076-36-07W, 海拔: 22米

当前天气观测

该预报发布于22分钟前的20:35 UTC
风速10节,风向北转东北,有时为18节阵风
温度 10°C
湿度 76%
气压 1015 hPa
能見度: 16.1公里
阴天层高于1500英尺

METAR: KSFQ 172035Z AUTO 02010G18KT 10SM OVC015 10/06 A2997 RMK AO2 T00950063

时间: 15:57 (20:57 UTC)


TAF: 丢失

超过4000个机场的气象观测和天气预报(METAR&TAF报告)。

可查询的气象台以黄色和红色小点在地图上表示。

将鼠标移到小点上方,可查看气象台名称。

然后点击查看天气观测和预报。

如需切换地图:点击带黑十字的绿色按钮放大地图;点击带横线的绿色按钮缩小地图;或者点击绿色箭头查看邻近地区的地图。


METAR-TAF: